Hlavní strana
METAR-TAF:

METAR-TAF

Letiště :

Valencie, Španělsko

zeměpisná šířka: 39-37-26N, zeměpisná délka: 0-28-26W, výška: 127 m

Aktuální stav počasí

Zpráva byla vytvořena před 42 minutami, v 22:30 UTC
Bezvětří
Teplota 13°C
Vlhkost vzduchu 94%
Tlak 1015 hPa
Viditelnost: 4400 m
Skoro jasno ve výšce 2700 ft
kouřmo

METAR: LEBT 212230Z AUTO 00000KT 4400 BR FEW027 13/12 Q1015

Čas: 01:12 (23:12 UTC)


TAF: chybějící

Stav a předpovědi počasí z více než 4 000 letišť (zprávy METAR a TAF).

Červené a žluté tečky na mapě představují dostupné meteorologické stanice.

Když kurzor umístíte na tečku, zobrazí se název stanice.

Pak kliknutím zobrazíte stav a předpověď počasí.

Chcete-li změnit mapu, kliknutím na zelené tlačítko se znaménkem +mapu přiblížíte, kliknutím na zelené tlačítko se znaménkem – mapu oddálíte a kliknutím na zelené šipky přejdete na sousední mapy.


METAR-TAF: